Time;durP1;ratioP1;P1;durP2;ratioP2;P2;SDS_P1;SDS_P2;PMS_P1;PMS_P2;Temp;Humidity;BMP_temperature;BMP_pressure;BME280_temperature;BME280_humidity;BME280_pressure;Samples;Min_cycle;Max_cycle;Signal;HPM_P1;HPM_P2
2023/04/19 00:01:59;;;;;;;;;;;;;;;8.83;79.46;102662.34;5002538;28;1255;-80
2023/04/19 00:04:24;;;;;;;;;;;;;;;8.83;79.73;102667.53;5005422;28;1167;-78
2023/04/19 00:06:50;;;;;;;;;;;;;;;8.84;79.55;102655.44;5001135;28;1535;-79
2023/04/19 00:09:15;;;;;;;;;;;;;;;8.83;79.55;102661.47;4995215;28;1207;-79
2023/04/19 00:11:41;;;;;;;;;;;;;;;8.84;79.80;102663.19;5000991;28;1894;-79
2023/04/19 00:14:06;;;;;;;;;;;;;;;8.82;79.36;102664.97;5001613;28;1159;-79
2023/04/19 00:16:31;;;;;;;;;;;;;;;8.81;80.00;102669.31;4988323;28;1260;-79
2023/04/19 00:18:56;;;;;;;;;;;;;;;8.80;79.81;102659.88;5005611;28;1066;-80
2023/04/19 00:21:22;;;;;;;;;;;;;;;8.81;79.78;102658.97;5007161;28;1413;-79
2023/04/19 00:23:47;;;;;;;;;;;;;;;8.80;79.96;102652.13;5002430;28;1099;-79
2023/04/19 00:26:14;;;;;;;;;;;;;;;8.82;80.12;102650.28;5005837;28;1128;-79
2023/04/19 00:28:39;;;;;;;;;;;;;;;8.86;79.77;102656.19;5003210;28;1062;-79
2023/04/19 00:31:04;;;;;;;;;;;;;;;8.87;79.79;102642.34;5004888;28;1971;-79
2023/04/19 00:33:30;;;;;;;;;;;;;;;8.81;79.87;102647.78;5000086;28;1397;-79
2023/04/19 00:35:55;;;;;;;;;;;;;;;8.79;79.87;102640.09;4981364;28;1327;-79
2023/04/19 00:38:20;;;;;;;;;;;;;;;8.83;79.55;102646.81;4997744;28;1103;-80
2023/04/19 00:40:46;;;;;;;;;;;;;;;8.75;80.33;102639.38;4988305;28;1244;-79
2023/04/19 00:43:15;;;;;;;;;;;;;;;8.80;79.89;102640.94;5004510;28;1255;-79
2023/04/19 00:45:40;;;;;;;;;;;;;;;8.80;80.18;102635.75;5004370;28;1123;-79
2023/04/19 00:48:06;;;;;;;;;;;;;;;8.75;80.48;102628.19;5001538;28;1130;-80
2023/04/19 00:50:32;;;;;;;;;;;;;;;8.78;80.50;102630.66;5006065;28;1965;-79
2023/04/19 00:52:57;;;;;;;;;;;;;;;8.76;80.53;102624.69;5001172;28;1322;-79
2023/04/19 00:55:23;;;;;;;;;;;;;;;8.75;80.72;102628.19;5002516;28;1177;-80
2023/04/19 00:57:50;;;;;;;;;;;;;;;8.77;80.74;102627.25;5004754;28;1254;-79
2023/04/19 01:00:16;;;;;;;;;;;;;;;8.74;80.90;102622.19;5006130;28;1093;-79
2023/04/19 01:02:41;;;;;;;;;;;;;;;8.76;80.80;102619.53;5004513;28;1471;-79
2023/04/19 01:05:06;;;;;;;;;;;;;;;8.78;80.97;102617.72;4997195;28;1640;-80
2023/04/19 01:07:32;;;;;;;;;;;;;;;8.84;80.88;102627.81;4990135;28;1240;-80
2023/04/19 01:09:57;;;;;;;;;;;;;;;8.75;81.00;102617.84;5005322;28;1979;-79
2023/04/19 01:12:23;;;;;;;;;;;;;;;8.74;81.65;102621.34;5002040;28;1215;-79
2023/04/19 01:14:48;;;;;;;;;;;;;;;8.73;81.90;102624.84;5009883;28;1154;-79
2023/04/19 01:17:15;;;;;;;;;;;;;;;8.72;82.26;102628.34;5009208;28;1003;-80
2023/04/19 01:19:41;;;;;;;;;;;;;;;8.74;81.46;102622.19;5008426;28;1194;-79
2023/04/19 01:22:06;;;;;;;;;;;;;;;8.74;81.55;102626.53;5003752;28;1472;-80
2023/04/19 01:24:32;;;;;;;;;;;;;;;8.71;82.44;102621.47;4990994;28;1366;-79
2023/04/19 01:26:57;;;;;;;;;;;;;;;8.74;82.01;102623.94;4994451;28;1319;-80
2023/04/19 01:29:22;;;;;;;;;;;;;;;8.72;81.97;102623.19;5008458;28;1206;-79
2023/04/19 01:31:52;;;;;;;;;;;;;;;8.69;82.37;102624.16;5009251;28;1987;-80
2023/04/19 01:34:17;;;;;;;;;;;;;;;8.71;81.94;102616.31;5008840;28;1174;-79
2023/04/19 01:36:42;;;;;;;;;;;;;;;8.69;82.55;102612.97;4992758;28;1374;-80
2023/04/19 01:39:07;;;;;;;;;;;;;;;8.73;82.53;102614.50;4991175;28;1248;-79
2023/04/19 01:41:33;;;;;;;;;;;;;;;8.69;83.03;102618.97;5007700;28;1582;-79
2023/04/19 01:43:59;;;;;;;;;;;;;;;8.64;83.53;102614.91;4991735;28;1213;-79
2023/04/19 01:46:24;;;;;;;;;;;;;;;8.63;83.54;102605.47;5003787;28;1142;-79
2023/04/19 01:48:49;;;;;;;;;;;;;;;8.64;83.38;102609.75;5004470;28;1100;-80
2023/04/19 01:51:16;;;;;;;;;;;;;;;8.59;83.50;102617.69;5003739;28;1918;-81
2023/04/19 01:53:41;;;;;;;;;;;;;;;8.62;83.76;102614.16;4997752;28;1490;-80
2023/04/19 01:56:06;;;;;;;;;;;;;;;8.59;83.95;102611.69;5009095;28;1211;-80
2023/04/19 01:58:31;;;;;;;;;;;;;;;8.57;83.70;102618.69;5004179;28;1188;-81
2023/04/19 02:00:57;;;;;;;;;;;;;;;8.57;84.29;102613.50;5007601;28;1174;-80
2023/04/19 02:03:22;;;;;;;;;;;;;;;8.56;84.69;102619.59;4998190;28;1775;-80
2023/04/19 02:05:47;;;;;;;;;;;;;;;8.57;84.38;102619.53;5008041;28;1167;-80
2023/04/19 02:08:12;;;;;;;;;;;;;;;8.55;84.47;102617.94;5003291;28;1547;-79
2023/04/19 02:10:37;;;;;;;;;;;;;;;8.52;85.13;102611.97;4991591;28;1918;-80
2023/04/19 02:13:03;;;;;;;;;;;;;;;8.54;85.08;102609.28;5009719;28;1026;-80
2023/04/19 02:15:28;;;;;;;;;;;;;;;8.52;84.76;102617.13;4989173;28;1523;-79
2023/04/19 02:17:53;;;;;;;;;;;;;;;8.50;85.17;102603.44;5008479;28;1127;-79
2023/04/19 02:20:19;;;;;;;;;;;;;;;8.50;85.32;102613.78;5008470;28;1163;-79
2023/04/19 02:22:44;;;;;;;;;;;;;;;8.49;85.40;102606.09;4997921;28;1283;-80
2023/04/19 02:25:09;;;;;;;;;;;;;;;8.50;85.33;102605.19;5006785;28;1188;-79
2023/04/19 02:27:35;;;;;;;;;;;;;;;8.47;84.88;102608.75;5004762;28;1261;-80
2023/04/19 02:30:00;;;;;;;;;;;;;;;8.44;85.26;102602.88;5007833;28;1972;-79
2023/04/19 02:32:26;;;;;;;;;;;;;;;8.44;85.43;102614.06;5004388;28;1507;-78
2023/04/19 02:34:51;;;;;;;;;;;;;;;8.43;85.73;102611.53;5004113;28;1199;-80
2023/04/19 02:37:17;;;;;;;;;;;;;;;8.42;86.33;102615.84;5007835;28;1203;-78
2023/04/19 02:39:42;;;;;;;;;;;;;;;8.43;86.23;102614.09;5006784;28;1165;-80
2023/04/19 02:42:07;;;;;;;;;;;;;;;8.39;86.10;102605.66;4998755;28;1290;-80
2023/04/19 02:44:32;;;;;;;;;;;;;;;8.42;85.98;102615.84;5003459;28;1237;-80
2023/04/19 02:46:58;;;;;;;;;;;;;;;8.43;85.89;102620.16;5007935;28;1070;-80
2023/04/19 02:49:23;;;;;;;;;;;;;;;8.43;86.29;102617.56;5004821;28;1234;-79
2023/04/19 02:51:49;;;;;;;;;;;;;;;8.43;86.05;102617.56;5006357;28;1882;-79
2023/04/19 02:54:14;;;;;;;;;;;;;;;8.46;85.35;102617.41;5008502;28;1144;-80
2023/04/19 02:56:40;;;;;;;;;;;;;;;8.42;86.22;102615.84;4991859;28;1409;-80
2023/04/19 02:59:05;;;;;;;;;;;;;;;8.44;85.63;102613.22;5007761;28;1187;-81
2023/04/19 03:01:30;;;;;;;;;;;;;;;8.37;86.63;102615.25;4989382;28;1371;-80
2023/04/19 03:03:56;;;;;;;;;;;;;;;8.37;85.97;102612.66;5006650;28;1559;-80
2023/04/19 03:06:21;;;;;;;;;;;;;;;8.38;86.03;102616.91;5005725;28;1358;-78
2023/04/19 03:08:46;;;;;;;;;;;;;;;8.37;86.20;102620.41;5004318;28;1274;-80
2023/04/19 03:11:13;;;;;;;;;;;;;;;8.35;86.26;102604.06;5007341;28;1929;-80
2023/04/19 03:13:39;;;;;;;;;;;;;;;8.36;86.09;102616.13;4988788;28;1339;-80
2023/04/19 03:16:05;;;;;;;;;;;;;;;8.36;86.34;102615.28;5004153;28;1465;-80
2023/04/19 03:18:30;;;;;;;;;;;;;;;8.35;86.51;102613.56;4988080;28;1186;-79
2023/04/19 03:20:55;;;;;;;;;;;;;;;8.34;86.35;102606.75;5004067;28;1131;-80
2023/04/19 03:23:20;;;;;;;;;;;;;;;8.33;86.10;102605.91;4988727;28;1336;-79
2023/04/19 03:25:46;;;;;;;;;;;;;;;8.31;86.32;102601.69;5005364;28;1164;-80
2023/04/19 03:28:11;;;;;;;;;;;;;;;8.29;86.18;102606.94;5006177;28;1243;-79
2023/04/19 03:30:36;;;;;;;;;;;;;;;8.29;85.93;102604.34;5004662;28;1973;-79
2023/04/19 03:33:01;;;;;;;;;;;;;;;8.26;86.01;102614.84;5005945;28;1287;-80
2023/04/19 03:35:28;;;;;;;;;;;;;;;8.25;85.80;102607.97;4986582;28;1264;-79
2023/04/19 03:37:53;;;;;;;;;;;;;;;8.24;86.13;102606.28;5003574;28;1145;-79
2023/04/19 03:40:18;;;;;;;;;;;;;;;8.22;86.00;102608.09;5003496;28;1452;-79
2023/04/19 03:42:44;;;;;;;;;;;;;;;8.19;85.64;102603.88;5000484;28;1190;-80
2023/04/19 03:45:09;;;;;;;;;;;;;;;8.17;86.19;102599.72;5022603;23;1610;-79
2023/04/19 03:47:34;;;;;;;;;;;;;;;8.16;86.38;102603.22;5017996;28;1344;-80
2023/04/19 03:50:00;;;;;;;;;;;;;;;8.16;86.19;102603.22;5001543;28;1985;-79
2023/04/19 03:52:26;;;;;;;;;;;;;;;8.11;86.16;102600.81;5001532;28;1215;-80
2023/04/19 03:54:51;;;;;;;;;;;;;;;8.10;86.21;102603.47;5006355;28;1168;-79
2023/04/19 03:57:16;;;;;;;;;;;;;;;8.11;86.54;102605.97;4998839;28;1278;-80
2023/04/19 03:59:41;;;;;;;;;;;;;;;8.08;85.96;102600.09;4995779;28;1158;-80
2023/04/19 04:02:07;;;;;;;;;;;;;;;8.09;86.85;102604.38;5003443;28;1276;-80
2023/04/19 04:04:32;;;;;;;;;;;;;;;8.08;86.69;102602.69;5005555;28;1114;-80
2023/04/19 04:06:57;;;;;;;;;;;;;;;8.08;86.38;102606.09;5001206;28;1184;-80
2023/04/19 04:09:23;;;;;;;;;;;;;;;8.07;86.18;102613.91;5006069;28;1254;-79
2023/04/19 04:11:48;;;;;;;;;;;;;;;8.06;86.71;102617.41;5005535;28;1890;-80
2023/04/19 04:14:14;;;;;;;;;;;;;;;8.07;85.74;102603.59;5004781;28;1315;-80
2023/04/19 04:16:39;;;;;;;;;;;;;;;8.05;86.19;102608.00;4999319;28;1166;-80
2023/04/19 04:19:04;;;;;;;;;;;;;;;8.04;86.34;102598.56;5004695;28;1844;-79
2023/04/19 04:21:30;;;;;;;;;;;;;;;8.03;86.29;102597.72;5014116;28;1184;-79
2023/04/19 04:23:55;;;;;;;;;;;;;;;8.03;86.10;102596.84;5008947;28;1329;-79
2023/04/19 04:26:20;;;;;;;;;;;;;;;8.04;86.04;102601.97;5003311;28;1200;-80
2023/04/19 04:28:46;;;;;;;;;;;;;;;8.04;85.87;102604.56;4995136;28;1106;-80
2023/04/19 04:31:11;;;;;;;;;;;;;;;8.04;85.94;102603.72;5005523;28;1930;-78
2023/04/19 04:33:37;;;;;;;;;;;;;;;8.07;85.78;102608.75;4998279;28;1527;-79
2023/04/19 04:36:02;;;;;;;;;;;;;;;8.02;85.34;102595.19;5003569;28;1186;-79
2023/04/19 04:38:28;;;;;;;;;;;;;;;8.02;85.29;102600.34;4999249;28;1210;-78
2023/04/19 04:40:54;;;;;;;;;;;;;;;8.00;85.21;102595.25;5007737;28;1121;-79
2023/04/19 04:43:20;;;;;;;;;;;;;;;7.97;84.31;102592.78;5007179;28;1146;-78
2023/04/19 04:45:45;;;;;;;;;;;;;;;7.98;83.95;102595.34;5004423;28;1380;-80
2023/04/19 04:48:11;;;;;;;;;;;;;;;7.95;83.79;102590.28;5007300;28;1098;-79
2023/04/19 04:50:36;;;;;;;;;;;;;;;7.91;83.14;102603.38;5004843;28;1894;-80
2023/04/19 04:53:01;;;;;;;;;;;;;;;7.86;83.45;102601.03;5004038;28;1305;-80
2023/04/19 04:55:26;;;;;;;;;;;;;;;7.87;82.99;102607.84;5020119;28;1352;-81
2023/04/19 04:57:52;;;;;;;;;;;;;;;7.85;82.38;102599.31;5006431;28;1306;-80
2023/04/19 05:00:17;;;;;;;;;;;;;;;7.85;82.75;102604.47;5002700;28;1146;-79
2023/04/19 05:02:42;;;;;;;;;;;;;;;7.81;82.74;102608.13;4997262;28;1351;-81
2023/04/19 05:05:10;;;;;;;;;;;;;;;7.81;82.71;102613.28;4999811;28;1319;-82
2023/04/19 05:07:35;;;;;;;;;;;;;;;7.78;81.95;102612.56;5002549;28;2227;-79
2023/04/19 05:10:00;;;;;;;;;;;;;;;7.77;82.34;102611.72;5005229;28;1922;-80
2023/04/19 05:12:25;;;;;;;;;;;;;;;7.74;81.96;102611.84;4998716;28;1329;-80
2023/04/19 05:14:50;;;;;;;;;;;;;;;7.76;81.52;102620.38;4999687;28;1145;-81
2023/04/19 05:17:15;;;;;;;;;;;;;;;7.72;80.87;102618.81;4997554;28;1396;-81
2023/04/19 05:19:41;;;;;;;;;;;;;;;7.72;81.44;102611.06;5001235;28;1156;-81
2023/04/19 05:22:06;;;;;;;;;;;;;;;7.70;81.28;102610.31;4996762;28;1189;-81
2023/04/19 05:24:31;;;;;;;;;;;;;;;7.71;81.42;102622.31;5001997;28;1188;-80
2023/04/19 05:26:56;;;;;;;;;;;;;;;7.67;81.07;102613.00;5002815;28;1436;-81
2023/04/19 05:29:21;;;;;;;;;;;;;;;7.67;80.77;102621.56;4998623;28;1181;-80
2023/04/19 05:31:47;;;;;;;;;;;;;;;7.66;80.29;102616.47;5005283;28;1945;-81
2023/04/19 05:34:12;;;;;;;;;;;;;;;7.67;80.20;102620.75;5000544;28;1201;-81
2023/04/19 05:36:37;;;;;;;;;;;;;;;7.66;80.53;102624.22;4994914;28;1158;-81
2023/04/19 05:39:02;;;;;;;;;;;;;;;7.68;80.49;102632.75;4996629;28;1417;-80
2023/04/19 05:41:27;;;;;;;;;;;;;;;7.66;80.44;102629.41;5005691;28;1133;-81
2023/04/19 05:43:53;;;;;;;;;;;;;;;7.69;78.89;102629.28;5004730;28;1098;-80
2023/04/19 05:46:18;;;;;;;;;;;;;;;7.65;79.48;102623.38;4999614;28;1403;-80
2023/04/19 05:48:43;;;;;;;;;;;;;;;7.66;79.27;102634.56;4997348;28;1157;-80
2023/04/19 05:51:08;;;;;;;;;;;;;;;7.67;78.26;102631.06;5003050;28;1902;-81
2023/04/19 05:53:33;;;;;;;;;;;;;;;7.68;77.10;102623.28;5014702;28;1132;-81
2023/04/19 05:55:59;;;;;;;;;;;;;;;7.71;77.94;102622.31;4993817;28;1160;-80
2023/04/19 05:58:24;;;;;;;;;;;;;;;7.72;77.67;102623.97;4998143;28;1075;-80
2023/04/19 06:00:50;;;;;;;;;;;;;;;7.73;78.03;102630.81;5004482;28;1337;-80
2023/04/19 06:03:15;;;;;;;;;;;;;;;7.76;77.95;102622.97;5008104;28;1428;-80
2023/04/19 06:05:40;;;;;;;;;;;;;;;7.84;77.15;102627.81;5020987;28;1279;-81
2023/04/19 06:08:06;;;;;;;;;;;;;;;7.82;77.00;102625.28;5000333;28;1390;-81
2023/04/19 06:10:31;;;;;;;;;;;;;;;7.84;75.09;102623.47;5002629;28;1959;-81
2023/04/19 06:12:56;;;;;;;;;;;;;;;7.85;75.67;102627.72;5002272;28;1358;-80
2023/04/19 06:15:21;;;;;;;;;;;;;;;7.84;75.66;102623.47;5007980;28;1161;-80
2023/04/19 06:17:47;;;;;;;;;;;;;;;7.88;75.49;102624.19;5003962;28;1097;-80
2023/04/19 06:20:13;;;;;;;;;;;;;;;7.92;74.84;102625.75;5002484;28;1494;-81
2023/04/19 06:22:42;;;;;;;;;;;;;;;7.93;75.26;102620.53;5001006;28;1102;-81
2023/04/19 06:25:07;;;;;;;;;;;;;;;7.95;74.45;102626.44;5000706;28;1232;-80
2023/04/19 06:27:32;;;;;;;;;;;;;;;8.03;72.43;102633.03;5000949;28;1000;-80
2023/04/19 06:29:59;;;;;;;;;;;;;;;8.02;72.04;102628.78;4998914;28;1897;-79
2023/04/19 06:32:25;;;;;;;;;;;;;;;8.09;71.87;102632.81;5005184;28;1384;-80
2023/04/19 06:34:50;;;;;;;;;;;;;;;8.08;72.87;102620.75;5000511;28;1479;-79
2023/04/19 06:37:15;;;;;;;;;;;;;;;8.14;72.92;102631.72;5000850;28;1374;-79
2023/04/19 06:39:40;;;;;;;;;;;;;;;8.19;71.06;102618.56;5003958;28;1224;-79
2023/04/19 06:42:06;;;;;;;;;;;;;;;8.24;69.69;102619.22;5005164;28;1323;-78
2023/04/19 06:44:31;;;;;;;;;;;;;;;8.27;69.23;102628.59;5004803;28;1110;-79
2023/04/19 06:46:56;;;;;;;;;;;;;;;8.33;70.92;102626.59;5002395;28;1067;-79
2023/04/19 06:49:21;;;;;;;;;;;;;;;8.33;70.69;102631.75;5004455;28;1287;-79
2023/04/19 06:51:46;;;;;;;;;;;;;;;8.37;69.40;102628.16;5005326;28;1902;-79
2023/04/19 06:54:12;;;;;;;;;;;;;;;8.45;69.27;102639.00;5002256;28;1201;-79
2023/04/19 06:56:44;;;;;;;;;;;;;;;8.47;68.36;102638.94;4998168;28;1178;-79
2023/04/19 06:59:11;;;;;;;;;;;;;;;8.49;67.82;102637.97;5001753;28;1228;-81
2023/04/19 07:01:36;;;;;;;;;;;;;;;8.51;67.46;102641.31;5006429;28;1169;-78
2023/04/19 07:04:02;;;;;;;;;;;;;;;8.56;66.99;102640.28;5020185;28;1193;-79
2023/04/19 07:06:28;;;;;;;;;;;;;;;8.55;66.45;102642.03;5003775;28;1134;-78
2023/04/19 07:08:53;;;;;;;;;;;;;;;8.58;64.75;102635.88;5000045;28;1161;-81
2023/04/19 07:11:19;;;;;;;;;;;;;;;8.58;63.26;102635.88;5004940;28;2016;-80
2023/04/19 07:13:44;;;;;;;;;;;;;;;8.59;63.97;102635.81;5004224;28;1515;-79
2023/04/19 07:16:09;;;;;;;;;;;;;;;8.64;63.35;102640.78;5005481;28;1313;-80
2023/04/19 07:18:35;;;;;;;;;;;;;;;8.69;63.82;102634.50;5004915;28;1507;-79
2023/04/19 07:21:00;;;;;;;;;;;;;;;8.73;63.75;102646.38;5006146;28;1175;-80
2023/04/19 07:23:25;;;;;;;;;;;;;;;8.79;63.65;102645.28;5005525;28;1092;-79
2023/04/19 07:25:51;;;;;;;;;;;;;;;8.81;62.01;102638.28;4998696;28;1221;-80
2023/04/19 07:28:16;;;;;;;;;;;;;;;8.94;62.30;102648.91;4998170;28;1171;-79
2023/04/19 07:30:44;;;;;;;;;;;;;;;8.95;61.92;102646.25;5002347;28;1914;-78
2023/04/19 07:33:10;;;;;;;;;;;;;;;8.92;60.96;102654.16;4999276;28;1107;-78
2023/04/19 07:35:37;;;;;;;;;;;;;;;8.94;60.96;102654.06;5016406;28;1321;-79
2023/04/19 07:38:02;;;;;;;;;;;;;;;8.98;60.84;102640.94;5003655;28;1316;-79
2023/04/19 07:40:27;;;;;;;;;;;;;;;9.14;60.65;102640.25;5004496;28;1178;-79
2023/04/19 07:42:54;;;;;;;;;;;;;;;9.10;61.40;102633.50;5006501;28;1250;-79
2023/04/19 07:45:19;;;;;;;;;;;;;;;9.16;58.02;102643.59;5001184;28;1231;-79
2023/04/19 07:47:45;;;;;;;;;;;;;;;9.20;59.01;102645.13;5021268;28;1167;-79
2023/04/19 07:50:11;;;;;;;;;;;;;;;9.25;56.23;102644.00;5006250;28;1894;-81
2023/04/19 07:52:36;;;;;;;;;;;;;;;9.20;56.80;102645.13;5005599;28;1240;-79
2023/04/19 07:55:01;;;;;;;;;;;;;;;9.23;57.52;102644.97;4994465;28;1187;-81
2023/04/19 07:57:26;;;;;;;;;;;;;;;9.25;57.60;102648.34;5003771;28;1267;-81
2023/04/19 07:59:56;;;;;;;;;;;;;;;9.28;57.16;102643.00;5001772;28;1220;-80
2023/04/19 08:02:21;;;;;;;;;;;;;;;9.32;57.36;102647.13;5006523;28;1384;-80
2023/04/19 08:04:48;;;;;;;;;;;;;;;9.30;54.83;102643.78;5002073;28;1142;-80
2023/04/19 08:07:13;;;;;;;;;;;;;;;9.31;56.18;102640.28;5002674;28;1324;-80
2023/04/19 08:09:39;;;;;;;;;;;;;;;9.35;56.52;102644.41;5004898;28;1181;-80
2023/04/19 08:12:04;;;;;;;;;;;;;;;9.33;56.63;102646.22;5003601;28;1895;-80
2023/04/19 08:14:29;;;;;;;;;;;;;;;9.39;56.90;102642.50;5004700;28;1253;-80
2023/04/19 08:16:55;;;;;;;;;;;;;;;9.47;56.63;102649.00;4995598;28;1331;-80
2023/04/19 08:19:20;;;;;;;;;;;;;;;9.51;55.15;102640.16;4992227;28;1202;-80
2023/04/19 08:21:45;;;;;;;;;;;;;;;9.54;54.69;102650.38;4995626;28;1311;-80
2023/04/19 08:24:10;;;;;;;;;;;;;;;9.56;54.23;102643.38;4996739;28;1322;-81
2023/04/19 08:26:37;;;;;;;;;;;;;;;9.70;53.10;102640.13;4999292;28;1332;-80
2023/04/19 08:29:03;;;;;;;;;;;;;;;9.58;53.10;102646.75;5000619;28;1251;-81
2023/04/19 08:31:28;;;;;;;;;;;;;;;9.57;55.00;102647.63;5003231;28;1898;-80
2023/04/19 08:33:53;;;;;;;;;;;;;;;9.58;54.38;102644.16;5004600;28;1284;-80
2023/04/19 08:36:18;;;;;;;;;;;;;;;9.62;54.06;102633.63;5001395;28;1344;-81
2023/04/19 08:38:43;;;;;;;;;;;;;;;9.69;55.26;102637.59;4999249;28;1277;-80
2023/04/19 08:41:10;;;;;;;;;;;;;;;9.76;55.15;102636.41;5003351;28;1143;-80
2023/04/19 08:43:36;;;;;;;;;;;;;;;9.86;55.39;102640.19;5005009;28;1175;-80
2023/04/19 08:46:01;;;;;;;;;;;;;;;9.90;53.50;102644.31;5003979;28;1192;-80
2023/04/19 08:48:27;;;;;;;;;;;;;;;10.00;52.44;102636.94;5001951;28;1300;-80
2023/04/19 08:50:54;;;;;;;;;;;;;;;9.97;53.47;102635.31;4990274;28;1906;-80
2023/04/19 08:53:20;;;;;;;;;;;;;;;9.97;52.82;102643.09;4987365;28;1173;-80
2023/04/19 08:55:45;;;;;;;;;;;;;;;9.98;52.52;102634.41;4982414;28;1155;-79
2023/04/19 08:58:10;;;;;;;;;;;;;;;9.92;54.05;102634.72;4979935;28;1015;-79
2023/04/19 09:00:40;;;;;;;;;;;;;;;10.00;54.61;102636.94;4987155;28;1130;-80
2023/04/19 09:03:06;;;;;;;;;;;;;;;10.04;52.07;102634.13;4993660;28;1114;-80
2023/04/19 09:05:31;;;;;;;;;;;;;;;10.05;52.56;102629.75;4986871;28;2143;-79
2023/04/19 09:08:16;;;;;;;;;;;;;;;10.15;52.89;102635.31;4984460;28;1063;-81
2023/04/19 09:10:51;;;;;;;;;;;;;;;10.11;51.77;102635.47;4988634;28;1886;-80
2023/04/19 09:13:17;;;;;;;;;;;;;;;10.04;51.17;102628.94;4992337;28;1063;-79
2023/04/19 09:15:43;;;;;;;;;;;;;;;10.11;52.53;102619.09;4993720;28;1169;-79
2023/04/19 09:18:09;;;;;;;;;;;;;;;10.27;50.56;102624.34;4984798;28;999;-80
2023/04/19 09:20:35;;;;;;;;;;;;;;;10.24;51.68;102629.69;4987862;28;1390;-80
2023/04/19 09:23:05;;;;;;;;;;;;;;;10.26;51.51;102617.47;4986983;28;1066;-81
2023/04/19 09:25:30;;;;;;;;;;;;;;;10.35;51.87;102627.38;4983001;28;1205;-80
2023/04/19 09:28:07;;;;;;;;;;;;;;;10.37;52.15;102616.00;4983895;28;1301;-80
2023/04/19 09:30:32;;;;;;;;;;;;;;;10.47;50.46;102625.91;4987213;28;1957;-80
2023/04/19 09:32:57;;;;;;;;;;;;;;;10.47;48.56;102626.75;4991741;28;1137;-80
2023/04/19 09:35:38;;;;;;;;;;;;;;;10.47;47.34;102626.75;4994065;28;1458;-79
2023/04/19 09:38:04;;;;;;;;;;;;;;;10.39;49.14;102623.72;5002510;28;1743;-80
2023/04/19 09:40:29;;;;;;;;;;;;;;;10.42;48.18;102623.53;4989253;28;1165;-80
2023/04/19 09:42:54;;;;;;;;;;;;;;;10.42;49.61;102613.16;4990639;28;1118;-80
2023/04/19 09:45:20;;;;;;;;;;;;;;;10.52;47.15;102613.53;4990769;28;1332;-80
2023/04/19 09:47:59;;;;;;;;;;;;;;;10.51;45.92;102615.28;5004722;28;1393;-80
2023/04/19 09:50:24;;;;;;;;;;;;;;;10.58;45.88;102634.81;4989354;28;1907;-81
2023/04/19 09:52:51;;;;;;;;;;;;;;;10.44;47.25;102616.53;5007022;28;1255;-80
2023/04/19 09:55:17;;;;;;;;;;;;;;;10.55;45.80;102628.91;4994335;28;1071;-80
2023/04/19 09:57:43;;;;;;;;;;;;;;;10.50;45.78;102628.34;4991603;28;1409;-81
2023/04/19 10:00:12;;;;;;;;;;;;;;;10.49;45.67;102614.50;4991631;28;1233;-79
2023/04/19 10:02:37;;;;;;;;;;;;;;;10.45;45.90;102615.63;4988831;28;1386;-80
2023/04/19 10:05:03;;;;;;;;;;;;;;;10.48;45.63;102627.56;5003179;28;1303;-80
2023/04/19 10:07:30;;;;;;;;;;;;;;;10.46;47.89;102617.28;4988593;28;1439;-79
2023/04/19 10:09:56;;;;;;;;;;;;;;;10.56;47.27;102628.88;4991046;28;1275;-80
2023/04/19 10:12:23;;;;;;;;;;;;;;;10.64;46.30;102616.31;4982543;28;2148;-81
2023/04/19 10:14:48;;;;;;;;;;;;;;;10.72;45.46;102621.06;4983897;28;1994;-80
2023/04/19 10:17:14;;;;;;;;;;;;;;;10.64;45.11;102611.13;4984422;28;2111;-81
2023/04/19 10:19:39;;;;;;;;;;;;;;;10.62;45.01;102620.75;4983680;28;2158;-80
2023/04/19 10:22:06;;;;;;;;;;;;;;;10.69;44.99;102623.03;4980815;28;2185;-79
2023/04/19 10:24:32;;;;;;;;;;;;;;;10.70;46.23;102609.13;4982310;28;2236;-75
2023/04/19 10:27:04;;;;;;;;;;;;;;;10.73;46.28;102616.75;4980600;28;1997;-77
2023/04/19 10:29:47;;;;;;;;;;;;;;;10.77;45.25;102620.84;4991076;28;1900;-75
2023/04/19 10:32:13;;;;;;;;;;;;;;;10.84;45.44;102609.22;4985702;28;1938;-75
2023/04/19 10:34:39;;;;;;;;;;;;;;;10.83;46.15;102607.53;4987553;28;1325;-77
2023/04/19 10:37:04;;;;;;;;;;;;;;;10.86;46.35;102607.38;4987282;28;1228;-77
2023/04/19 10:39:40;;;;;;;;;;;;;;;10.97;46.24;102610.22;4987015;28;1343;-77
2023/04/19 10:42:05;;;;;;;;;;;;;;;10.96;44.43;102598.19;4986812;28;1133;-78
2023/04/19 10:44:30;;;;;;;;;;;;;;;11.00;46.14;102599.66;5003929;28;1323;-75
2023/04/19 10:46:57;;;;;;;;;;;;;;;11.11;44.78;102602.50;4985166;28;1099;-75
2023/04/19 10:49:22;;;;;;;;;;;;;;;11.21;46.40;102622.78;4988251;28;1207;-77
2023/04/19 10:51:54;;;;;;;;;;;;;;;11.24;44.51;102596.63;4984521;28;1891;-76
2023/04/19 10:54:32;;;;;;;;;;;;;;;11.33;45.04;102590.91;4988895;28;1012;-77
2023/04/19 10:57:01;;;;;;;;;;;;;;;11.40;44.73;102592.25;4984253;28;1401;-74
2023/04/19 10:59:30;;;;;;;;;;;;;;;11.50;44.96;102582.16;4988147;28;1050;-77
2023/04/19 11:01:57;;;;;;;;;;;;;;;11.46;44.61;102576.28;4988964;28;1085;-74
2023/04/19 11:04:31;;;;;;;;;;;;;;;11.54;43.61;102583.69;5000096;28;1263;-75
2023/04/19 11:07:00;;;;;;;;;;;;;;;11.62;42.14;102577.09;4988126;28;1084;-74
2023/04/19 11:09:33;;;;;;;;;;;;;;;11.56;41.98;102572.25;4985898;28;2104;-75
2023/04/19 11:12:10;;;;;;;;;;;;;;;11.63;41.30;102570.97;4988577;28;1934;-76
2023/04/19 11:14:39;;;;;;;;;;;;;;;11.45;40.55;102569.44;4984308;28;1086;-75
2023/04/19 11:17:26;;;;;;;;;;;;;;;11.49;41.25;102560.53;4986873;28;1129;-75
2023/04/19 11:19:58;;;;;;;;;;;;;;;11.51;39.70;102569.06;4984665;28;1109;-75
2023/04/19 11:22:33;;;;;;;;;;;;;;;11.57;39.46;102558.31;4982907;28;1295;-76
2023/04/19 11:25:05;;;;;;;;;;;;;;;11.50;40.79;102561.38;4987766;28;1078;-76
2023/04/19 11:27:31;;;;;;;;;;;;;;;11.65;40.63;102561.34;4981894;28;967;-76
2023/04/19 11:30:10;;;;;;;;;;;;;;;11.75;40.19;102571.16;4986328;28;1061;-76
2023/04/19 11:32:35;;;;;;;;;;;;;;;11.65;42.50;102540.53;4988355;28;1277;-75
2023/04/19 11:35:05;;;;;;;;;;;;;;;11.79;42.31;102536.28;4986863;28;1322;-75
2023/04/19 11:37:33;;;;;;;;;;;;;;;11.89;42.18;102547.84;4984794;28;1231;-75
2023/04/19 11:39:59;;;;;;;;;;;;;;;11.98;42.83;102534.28;4984816;28;1173;-74
2023/04/19 11:42:24;;;;;;;;;;;;;;;12.07;40.61;102536.34;4985564;28;1157;-74
2023/04/19 11:44:50;;;;;;;;;;;;;;;12.13;41.09;102515.16;4983100;28;1186;-74
2023/04/19 11:47:16;;;;;;;;;;;;;;;12.14;41.40;102532.41;4997663;28;1285;-75
2023/04/19 11:49:41;;;;;;;;;;;;;;;12.18;40.36;102528.72;4981037;28;1373;-75
2023/04/19 11:52:06;;;;;;;;;;;;;;;12.23;41.70;102510.22;4989889;28;1902;-75
2023/04/19 11:54:32;;;;;;;;;;;;;;;12.38;41.11;102519.66;4985596;28;1150;-74
2023/04/19 11:56:57;;;;;;;;;;;;;;;12.42;39.71;102510.75;4984496;28;1215;-75
2023/04/19 11:59:22;;;;;;;;;;;;;;;12.44;39.97;102508.03;4979342;28;1373;-74
2023/04/19 12:01:48;;;;;;;;;;;;;;;12.52;39.91;102505.81;4984748;28;1235;-75
2023/04/19 12:04:13;;;;;;;;;;;;;;;12.61;40.54;102494.78;4985107;28;1372;-74
2023/04/19 12:06:38;;;;;;;;;;;;;;;12.72;40.81;102489.75;4984144;28;932;-74
2023/04/19 12:09:06;;;;;;;;;;;;;;;12.86;40.71;102503.66;5000941;28;1303;-74
2023/04/19 12:11:42;;;;;;;;;;;;;;;12.82;39.84;102481.34;4986636;28;1898;-74
2023/04/19 12:14:08;;;;;;;;;;;;;;;12.89;40.10;102486.06;4985921;28;1359;-74
2023/04/19 12:16:33;;;;;;;;;;;;;;;12.96;36.81;102491.69;4986427;28;1392;-77
2023/04/19 12:19:09;;;;;;;;;;;;;;;12.92;38.13;102487.66;4984271;28;1391;-75
2023/04/19 12:21:35;;;;;;;;;;;;;;;12.95;37.10;102483.06;4982499;28;1392;-74
2023/04/19 12:24:00;;;;;;;;;;;;;;;13.03;38.29;102485.19;4988244;28;1370;-76
2023/04/19 12:26:27;;;;;;;;;;;;;;;13.06;36.49;102479.75;4985724;28;1314;-74
2023/04/19 12:28:52;;;;;;;;;;;;;;;13.07;37.04;102478.81;4984554;28;1432;-74
2023/04/19 12:31:19;;;;;;;;;;;;;;;13.12;37.63;102471.53;4987039;28;1895;-75
2023/04/19 12:33:44;;;;;;;;;;;;;;;13.16;35.60;102475.59;4982373;28;1357;-76
2023/04/19 12:36:10;;;;;;;;;;;;;;;13.10;34.25;102476.00;4986136;28;1036;-74
2023/04/19 12:38:36;;;;;;;;;;;;;;;13.07;34.94;102481.41;4985562;28;1367;-76
2023/04/19 12:41:01;;;;;;;;;;;;;;;13.05;35.58;102467.66;4987779;28;1580;-78
2023/04/19 12:43:28;;;;;;;;;;;;;;;13.03;35.23;102474.75;4980009;28;1213;-74
2023/04/19 12:45:54;;;;;;;;;;;;;;;13.05;36.62;102467.66;4984394;28;1304;-72
2023/04/19 12:48:19;;;;;;;;;;;;;;;13.09;34.90;102476.97;4981491;28;1502;-76